sensor_id;sensor_type;location;lat;lon;timestamp;P1;durP1;ratioP1;P2;durP2;ratioP2
5199;SDS011;2619;47.868;11.892;2024-02-21T00:00:47;8.87;;;2.37;;
5199;SDS011;2619;47.868;11.892;2024-02-21T00:03:13;4.40;;;2.00;;
5199;SDS011;2619;47.868;11.892;2024-02-21T00:05:38;3.70;;;2.10;;
5199;SDS011;2619;47.868;11.892;2024-02-21T00:08:04;5.87;;;2.10;;
5199;SDS011;2619;47.868;11.892;2024-02-21T00:10:30;5.10;;;1.80;;
5199;SDS011;2619;47.868;11.892;2024-02-21T00:12:57;4.20;;;2.23;;
5199;SDS011;2619;47.868;11.892;2024-02-21T00:15:24;3.50;;;2.00;;
5199;SDS011;2619;47.868;11.892;2024-02-21T00:17:50;3.50;;;1.80;;
5199;SDS011;2619;47.868;11.892;2024-02-21T00:20:15;6.60;;;1.90;;
5199;SDS011;2619;47.868;11.892;2024-02-21T00:22:41;3.20;;;1.87;;
5199;SDS011;2619;47.868;11.892;2024-02-21T00:25:06;6.93;;;1.80;;
5199;SDS011;2619;47.868;11.892;2024-02-21T00:27:33;5.23;;;1.87;;
5199;SDS011;2619;47.868;11.892;2024-02-21T00:29:58;4.40;;;2.17;;
5199;SDS011;2619;47.868;11.892;2024-02-21T00:32:24;6.70;;;2.80;;
5199;SDS011;2619;47.868;11.892;2024-02-21T00:34:49;5.03;;;2.13;;
5199;SDS011;2619;47.868;11.892;2024-02-21T00:37:15;4.53;;;2.30;;
5199;SDS011;2619;47.868;11.892;2024-02-21T00:39:41;3.73;;;2.10;;
5199;SDS011;2619;47.868;11.892;2024-02-21T00:42:07;5.10;;;1.97;;
5199;SDS011;2619;47.868;11.892;2024-02-21T00:44:33;6.00;;;2.07;;
5199;SDS011;2619;47.868;11.892;2024-02-21T00:46:58;5.70;;;1.87;;
5199;SDS011;2619;47.868;11.892;2024-02-21T00:49:24;3.60;;;1.60;;
5199;SDS011;2619;47.868;11.892;2024-02-21T00:51:49;4.23;;;2.67;;
5199;SDS011;2619;47.868;11.892;2024-02-21T00:54:15;4.03;;;2.00;;
5199;SDS011;2619;47.868;11.892;2024-02-21T00:56:42;5.47;;;2.47;;
5199;SDS011;2619;47.868;11.892;2024-02-21T00:59:07;3.90;;;2.20;;
5199;SDS011;2619;47.868;11.892;2024-02-21T01:01:33;3.57;;;2.00;;
5199;SDS011;2619;47.868;11.892;2024-02-21T01:03:59;7.07;;;2.13;;
5199;SDS011;2619;47.868;11.892;2024-02-21T01:06:25;3.90;;;1.97;;
5199;SDS011;2619;47.868;11.892;2024-02-21T01:08:50;5.40;;;2.00;;
5199;SDS011;2619;47.868;11.892;2024-02-21T01:11:16;3.57;;;1.70;;
5199;SDS011;2619;47.868;11.892;2024-02-21T01:13:42;3.30;;;1.57;;
5199;SDS011;2619;47.868;11.892;2024-02-21T01:16:08;4.70;;;1.80;;
5199;SDS011;2619;47.868;11.892;2024-02-21T01:18:33;4.10;;;1.83;;
5199;SDS011;2619;47.868;11.892;2024-02-21T01:20:59;4.00;;;2.03;;
5199;SDS011;2619;47.868;11.892;2024-02-21T01:23:25;7.20;;;2.20;;
5199;SDS011;2619;47.868;11.892;2024-02-21T01:25:51;5.20;;;2.30;;
5199;SDS011;2619;47.868;11.892;2024-02-21T01:28:17;5.53;;;1.80;;
5199;SDS011;2619;47.868;11.892;2024-02-21T01:30:43;4.63;;;1.83;;
5199;SDS011;2619;47.868;11.892;2024-02-21T01:33:09;4.00;;;1.77;;
5199;SDS011;2619;47.868;11.892;2024-02-21T01:35:35;5.67;;;2.17;;
5199;SDS011;2619;47.868;11.892;2024-02-21T01:38:02;2.53;;;1.50;;
5199;SDS011;2619;47.868;11.892;2024-02-21T01:40:27;2.87;;;1.47;;
5199;SDS011;2619;47.868;11.892;2024-02-21T01:42:55;3.30;;;1.63;;
5199;SDS011;2619;47.868;11.892;2024-02-21T01:45:21;4.90;;;2.20;;
5199;SDS011;2619;47.868;11.892;2024-02-21T01:47:47;3.20;;;2.20;;
5199;SDS011;2619;47.868;11.892;2024-02-21T01:50:14;3.63;;;1.60;;
5199;SDS011;2619;47.868;11.892;2024-02-21T01:52:42;3.37;;;1.50;;
5199;SDS011;2619;47.868;11.892;2024-02-21T01:55:10;3.17;;;1.40;;
5199;SDS011;2619;47.868;11.892;2024-02-21T01:57:38;3.23;;;1.13;;
5199;SDS011;2619;47.868;11.892;2024-02-21T02:00:05;5.83;;;1.67;;
5199;SDS011;2619;47.868;11.892;2024-02-21T02:02:32;4.10;;;1.87;;
5199;SDS011;2619;47.868;11.892;2024-02-21T02:04:57;4.00;;;1.87;;
5199;SDS011;2619;47.868;11.892;2024-02-21T02:07:24;3.03;;;1.60;;
5199;SDS011;2619;47.868;11.892;2024-02-21T02:09:50;3.70;;;1.60;;
5199;SDS011;2619;47.868;11.892;2024-02-21T02:12:15;3.70;;;1.67;;
5199;SDS011;2619;47.868;11.892;2024-02-21T02:14:41;2.50;;;1.40;;
5199;SDS011;2619;47.868;11.892;2024-02-21T02:17:06;4.50;;;1.83;;
5199;SDS011;2619;47.868;11.892;2024-02-21T02:19:32;3.70;;;1.60;;
5199;SDS011;2619;47.868;11.892;2024-02-21T02:22:06;5.30;;;1.93;;
5199;SDS011;2619;47.868;11.892;2024-02-21T02:24:38;4.07;;;1.80;;
5199;SDS011;2619;47.868;11.892;2024-02-21T02:27:04;3.40;;;1.53;;
5199;SDS011;2619;47.868;11.892;2024-02-21T02:29:31;3.37;;;1.70;;
5199;SDS011;2619;47.868;11.892;2024-02-21T02:31:57;3.80;;;1.50;;
5199;SDS011;2619;47.868;11.892;2024-02-21T02:34:23;3.20;;;1.37;;
5199;SDS011;2619;47.868;11.892;2024-02-21T02:36:49;4.50;;;1.97;;
5199;SDS011;2619;47.868;11.892;2024-02-21T02:39:14;3.83;;;1.73;;
5199;SDS011;2619;47.868;11.892;2024-02-21T02:41:40;3.40;;;1.80;;
5199;SDS011;2619;47.868;11.892;2024-02-21T02:44:05;3.50;;;1.40;;
5199;SDS011;2619;47.868;11.892;2024-02-21T02:46:31;3.17;;;1.67;;
5199;SDS011;2619;47.868;11.892;2024-02-21T02:48:57;3.30;;;1.50;;
5199;SDS011;2619;47.868;11.892;2024-02-21T02:51:22;3.53;;;1.53;;
5199;SDS011;2619;47.868;11.892;2024-02-21T02:53:48;3.70;;;1.50;;
5199;SDS011;2619;47.868;11.892;2024-02-21T02:56:14;3.93;;;2.00;;
5199;SDS011;2619;47.868;11.892;2024-02-21T02:58:40;4.00;;;1.60;;
5199;SDS011;2619;47.868;11.892;2024-02-21T03:01:07;4.90;;;1.80;;
5199;SDS011;2619;47.868;11.892;2024-02-21T03:03:33;6.30;;;1.90;;
5199;SDS011;2619;47.868;11.892;2024-02-21T03:05:58;4.20;;;1.73;;
5199;SDS011;2619;47.868;11.892;2024-02-21T03:08:24;5.20;;;1.87;;
5199;SDS011;2619;47.868;11.892;2024-02-21T03:10:49;5.03;;;1.90;;
5199;SDS011;2619;47.868;11.892;2024-02-21T03:13:15;5.13;;;2.10;;
5199;SDS011;2619;47.868;11.892;2024-02-21T03:15:40;3.87;;;1.80;;
5199;SDS011;2619;47.868;11.892;2024-02-21T03:18:06;3.97;;;1.50;;
5199;SDS011;2619;47.868;11.892;2024-02-21T03:20:32;3.67;;;1.80;;
5199;SDS011;2619;47.868;11.892;2024-02-21T03:22:57;3.67;;;1.53;;
5199;SDS011;2619;47.868;11.892;2024-02-21T03:25:23;4.03;;;1.93;;
5199;SDS011;2619;47.868;11.892;2024-02-21T03:27:48;3.70;;;1.90;;
5199;SDS011;2619;47.868;11.892;2024-02-21T03:30:14;3.73;;;1.67;;
5199;SDS011;2619;47.868;11.892;2024-02-21T03:32:40;3.83;;;1.90;;
5199;SDS011;2619;47.868;11.892;2024-02-21T03:35:05;6.57;;;2.33;;
5199;SDS011;2619;47.868;11.892;2024-02-21T03:37:31;3.40;;;1.97;;
5199;SDS011;2619;47.868;11.892;2024-02-21T03:39:57;5.07;;;1.53;;
5199;SDS011;2619;47.868;11.892;2024-02-21T03:42:22;3.70;;;2.10;;
5199;SDS011;2619;47.868;11.892;2024-02-21T03:44:48;4.10;;;2.10;;
5199;SDS011;2619;47.868;11.892;2024-02-21T03:47:13;3.13;;;1.80;;
5199;SDS011;2619;47.868;11.892;2024-02-21T03:49:39;2.90;;;1.70;;
5199;SDS011;2619;47.868;11.892;2024-02-21T03:52:05;6.07;;;2.00;;
5199;SDS011;2619;47.868;11.892;2024-02-21T03:54:30;7.30;;;1.60;;
5199;SDS011;2619;47.868;11.892;2024-02-21T03:56:56;3.63;;;1.80;;
5199;SDS011;2619;47.868;11.892;2024-02-21T03:59:22;3.60;;;2.00;;
5199;SDS011;2619;47.868;11.892;2024-02-21T04:01:51;7.40;;;1.67;;
5199;SDS011;2619;47.868;11.892;2024-02-21T04:04:17;3.40;;;1.43;;
5199;SDS011;2619;47.868;11.892;2024-02-21T04:06:47;3.17;;;1.50;;
5199;SDS011;2619;47.868;11.892;2024-02-21T04:09:13;5.10;;;1.77;;
5199;SDS011;2619;47.868;11.892;2024-02-21T04:11:38;2.63;;;1.30;;
5199;SDS011;2619;47.868;11.892;2024-02-21T04:14:04;5.50;;;1.80;;
5199;SDS011;2619;47.868;11.892;2024-02-21T04:16:29;3.07;;;1.50;;
5199;SDS011;2619;47.868;11.892;2024-02-21T04:18:55;3.50;;;1.43;;
5199;SDS011;2619;47.868;11.892;2024-02-21T04:21:20;3.83;;;1.50;;
5199;SDS011;2619;47.868;11.892;2024-02-21T04:23:46;3.03;;;1.37;;
5199;SDS011;2619;47.868;11.892;2024-02-21T04:26:11;3.70;;;1.37;;
5199;SDS011;2619;47.868;11.892;2024-02-21T04:28:37;4.80;;;1.37;;
5199;SDS011;2619;47.868;11.892;2024-02-21T04:31:03;3.70;;;1.53;;
5199;SDS011;2619;47.868;11.892;2024-02-21T04:33:29;3.70;;;1.37;;
5199;SDS011;2619;47.868;11.892;2024-02-21T04:35:54;2.93;;;1.30;;
5199;SDS011;2619;47.868;11.892;2024-02-21T04:38:20;3.87;;;1.20;;
5199;SDS011;2619;47.868;11.892;2024-02-21T04:40:46;2.80;;;1.30;;
5199;SDS011;2619;47.868;11.892;2024-02-21T04:43:11;4.40;;;2.17;;
5199;SDS011;2619;47.868;11.892;2024-02-21T04:45:37;4.17;;;2.00;;
5199;SDS011;2619;47.868;11.892;2024-02-21T04:48:03;5.30;;;2.37;;
5199;SDS011;2619;47.868;11.892;2024-02-21T04:50:28;2.97;;;1.47;;
5199;SDS011;2619;47.868;11.892;2024-02-21T04:52:54;3.87;;;1.80;;
5199;SDS011;2619;47.868;11.892;2024-02-21T04:55:19;3.40;;;1.80;;
5199;SDS011;2619;47.868;11.892;2024-02-21T04:57:45;3.60;;;2.03;;
5199;SDS011;2619;47.868;11.892;2024-02-21T05:00:11;6.03;;;1.63;;
5199;SDS011;2619;47.868;11.892;2024-02-21T05:02:36;2.87;;;1.60;;
5199;SDS011;2619;47.868;11.892;2024-02-21T05:05:02;3.63;;;1.80;;
5199;SDS011;2619;47.868;11.892;2024-02-21T05:07:28;4.87;;;2.30;;
5199;SDS011;2619;47.868;11.892;2024-02-21T05:09:53;3.10;;;1.93;;
5199;SDS011;2619;47.868;11.892;2024-02-21T05:12:19;4.67;;;2.20;;
5199;SDS011;2619;47.868;11.892;2024-02-21T05:14:45;4.40;;;1.73;;
5199;SDS011;2619;47.868;11.892;2024-02-21T05:17:10;6.30;;;2.67;;
5199;SDS011;2619;47.868;11.892;2024-02-21T05:19:36;3.40;;;1.90;;
5199;SDS011;2619;47.868;11.892;2024-02-21T05:22:01;4.27;;;2.30;;
5199;SDS011;2619;47.868;11.892;2024-02-21T05:24:27;3.30;;;2.13;;
5199;SDS011;2619;47.868;11.892;2024-02-21T05:26:54;2.77;;;1.90;;
5199;SDS011;2619;47.868;11.892;2024-02-21T05:29:20;7.13;;;2.03;;
5199;SDS011;2619;47.868;11.892;2024-02-21T05:34:17;6.73;;;2.50;;
5199;SDS011;2619;47.868;11.892;2024-02-21T05:36:43;5.00;;;2.90;;
5199;SDS011;2619;47.868;11.892;2024-02-21T05:41:37;13.43;;;5.00;;
5199;SDS011;2619;47.868;11.892;2024-02-21T05:44:03;6.73;;;2.97;;
5199;SDS011;2619;47.868;11.892;2024-02-21T05:46:28;4.20;;;2.67;;
5199;SDS011;2619;47.868;11.892;2024-02-21T05:48:54;4.67;;;2.43;;
5199;SDS011;2619;47.868;11.892;2024-02-21T05:51:19;8.40;;;2.53;;
5199;SDS011;2619;47.868;11.892;2024-02-21T05:53:45;6.60;;;2.93;;
5199;SDS011;2619;47.868;11.892;2024-02-21T05:56:11;4.17;;;2.53;;
5199;SDS011;2619;47.868;11.892;2024-02-21T05:58:37;5.37;;;2.57;;
5199;SDS011;2619;47.868;11.892;2024-02-21T06:01:03;7.33;;;3.60;;
5199;SDS011;2619;47.868;11.892;2024-02-21T06:03:30;4.73;;;3.03;;
5199;SDS011;2619;47.868;11.892;2024-02-21T06:05:55;4.00;;;2.70;;
5199;SDS011;2619;47.868;11.892;2024-02-21T06:08:21;3.97;;;2.87;;
5199;SDS011;2619;47.868;11.892;2024-02-21T06:10:47;4.73;;;3.00;;
5199;SDS011;2619;47.868;11.892;2024-02-21T06:13:13;6.20;;;3.33;;
5199;SDS011;2619;47.868;11.892;2024-02-21T06:15:39;4.97;;;2.73;;
5199;SDS011;2619;47.868;11.892;2024-02-21T06:18:05;5.83;;;3.40;;
5199;SDS011;2619;47.868;11.892;2024-02-21T06:20:31;18.20;;;4.30;;
5199;SDS011;2619;47.868;11.892;2024-02-21T06:22:56;6.53;;;2.80;;
5199;SDS011;2619;47.868;11.892;2024-02-21T06:25:22;5.23;;;3.20;;
5199;SDS011;2619;47.868;11.892;2024-02-21T06:27:48;4.80;;;3.10;;
5199;SDS011;2619;47.868;11.892;2024-02-21T06:30:13;7.53;;;3.23;;
5199;SDS011;2619;47.868;11.892;2024-02-21T06:32:39;6.93;;;3.33;;
5199;SDS011;2619;47.868;11.892;2024-02-21T06:35:05;4.50;;;2.73;;
5199;SDS011;2619;47.868;11.892;2024-02-21T06:37:30;4.10;;;2.67;;
5199;SDS011;2619;47.868;11.892;2024-02-21T06:39:57;5.73;;;2.83;;
5199;SDS011;2619;47.868;11.892;2024-02-21T06:42:26;3.93;;;2.40;;
5199;SDS011;2619;47.868;11.892;2024-02-21T06:44:51;3.90;;;3.10;;
5199;SDS011;2619;47.868;11.892;2024-02-21T06:47:17;6.90;;;3.60;;
5199;SDS011;2619;47.868;11.892;2024-02-21T06:49:43;4.93;;;2.70;;
5199;SDS011;2619;47.868;11.892;2024-02-21T06:52:13;7.10;;;3.20;;
5199;SDS011;2619;47.868;11.892;2024-02-21T06:54:41;6.00;;;3.00;;
5199;SDS011;2619;47.868;11.892;2024-02-21T06:57:07;4.70;;;2.93;;
5199;SDS011;2619;47.868;11.892;2024-02-21T06:59:32;5.67;;;4.60;;
5199;SDS011;2619;47.868;11.892;2024-02-21T07:01:58;7.53;;;4.50;;
5199;SDS011;2619;47.868;11.892;2024-02-21T07:04:24;5.87;;;3.97;;
5199;SDS011;2619;47.868;11.892;2024-02-21T07:06:50;7.00;;;4.30;;
5199;SDS011;2619;47.868;11.892;2024-02-21T07:09:16;6.50;;;4.73;;
5199;SDS011;2619;47.868;11.892;2024-02-21T07:11:41;7.80;;;5.43;;
5199;SDS011;2619;47.868;11.892;2024-02-21T07:14:07;5.90;;;4.20;;
5199;SDS011;2619;47.868;11.892;2024-02-21T07:16:32;7.30;;;5.20;;
5199;SDS011;2619;47.868;11.892;2024-02-21T07:18:58;8.13;;;5.53;;
5199;SDS011;2619;47.868;11.892;2024-02-21T07:21:24;7.73;;;6.03;;
5199;SDS011;2619;47.868;11.892;2024-02-21T07:23:49;11.17;;;6.20;;
5199;SDS011;2619;47.868;11.892;2024-02-21T07:26:15;8.30;;;5.27;;
5199;SDS011;2619;47.868;11.892;2024-02-21T07:28:41;7.50;;;4.20;;
5199;SDS011;2619;47.868;11.892;2024-02-21T07:31:07;4.70;;;3.43;;
5199;SDS011;2619;47.868;11.892;2024-02-21T07:33:32;4.70;;;3.30;;
5199;SDS011;2619;47.868;11.892;2024-02-21T07:35:58;6.50;;;3.70;;
5199;SDS011;2619;47.868;11.892;2024-02-21T07:38:23;6.10;;;3.63;;
5199;SDS011;2619;47.868;11.892;2024-02-21T07:41:51;5.87;;;3.80;;
5199;SDS011;2619;47.868;11.892;2024-02-21T07:44:16;5.97;;;3.50;;
5199;SDS011;2619;47.868;11.892;2024-02-21T07:46:42;6.30;;;3.73;;
5199;SDS011;2619;47.868;11.892;2024-02-21T07:49:07;7.70;;;4.33;;
5199;SDS011;2619;47.868;11.892;2024-02-21T07:51:33;5.37;;;3.40;;
5199;SDS011;2619;47.868;11.892;2024-02-21T07:54:01;5.80;;;4.03;;
5199;SDS011;2619;47.868;11.892;2024-02-21T07:56:27;6.67;;;3.70;;
5199;SDS011;2619;47.868;11.892;2024-02-21T07:58:53;7.37;;;3.93;;
5199;SDS011;2619;47.868;11.892;2024-02-21T08:01:19;4.83;;;3.60;;
5199;SDS011;2619;47.868;11.892;2024-02-21T08:03:45;7.27;;;4.87;;
5199;SDS011;2619;47.868;11.892;2024-02-21T08:06:12;5.97;;;3.40;;
5199;SDS011;2619;47.868;11.892;2024-02-21T08:08:38;5.57;;;3.33;;
5199;SDS011;2619;47.868;11.892;2024-02-21T08:11:04;6.33;;;3.20;;
5199;SDS011;2619;47.868;11.892;2024-02-21T08:13:29;7.20;;;4.30;;
5199;SDS011;2619;47.868;11.892;2024-02-21T08:15:55;8.00;;;4.50;;
5199;SDS011;2619;47.868;11.892;2024-02-21T08:18:22;5.40;;;3.60;;
5199;SDS011;2619;47.868;11.892;2024-02-21T08:20:47;4.50;;;3.30;;
5199;SDS011;2619;47.868;11.892;2024-02-21T08:23:15;6.13;;;3.50;;
5199;SDS011;2619;47.868;11.892;2024-02-21T08:25:42;5.63;;;3.73;;
5199;SDS011;2619;47.868;11.892;2024-02-21T08:28:07;5.77;;;3.53;;
5199;SDS011;2619;47.868;11.892;2024-02-21T08:30:33;5.93;;;3.40;;
5199;SDS011;2619;47.868;11.892;2024-02-21T08:32:59;6.70;;;3.83;;
5199;SDS011;2619;47.868;11.892;2024-02-21T08:35:24;5.30;;;3.53;;
5199;SDS011;2619;47.868;11.892;2024-02-21T08:37:50;6.20;;;3.90;;
5199;SDS011;2619;47.868;11.892;2024-02-21T08:40:16;7.87;;;3.73;;
5199;SDS011;2619;47.868;11.892;2024-02-21T08:42:46;9.50;;;6.23;;
5199;SDS011;2619;47.868;11.892;2024-02-21T08:45:12;13.03;;;6.73;;
5199;SDS011;2619;47.868;11.892;2024-02-21T08:47:41;6.03;;;4.70;;
5199;SDS011;2619;47.868;11.892;2024-02-21T08:50:07;7.30;;;4.37;;
5199;SDS011;2619;47.868;11.892;2024-02-21T08:52:34;5.90;;;4.23;;
5199;SDS011;2619;47.868;11.892;2024-02-21T08:55:00;6.83;;;3.30;;
5199;SDS011;2619;47.868;11.892;2024-02-21T08:57:26;4.23;;;2.87;;
5199;SDS011;2619;47.868;11.892;2024-02-21T08:59:52;4.63;;;3.07;;
5199;SDS011;2619;47.868;11.892;2024-02-21T09:02:18;5.33;;;2.83;;
5199;SDS011;2619;47.868;11.892;2024-02-21T09:04:43;4.47;;;3.27;;
5199;SDS011;2619;47.868;11.892;2024-02-21T09:07:09;3.60;;;2.80;;
5199;SDS011;2619;47.868;11.892;2024-02-21T09:09:35;3.73;;;2.23;;
5199;SDS011;2619;47.868;11.892;2024-02-21T09:12:03;5.17;;;2.93;;
5199;SDS011;2619;47.868;11.892;2024-02-21T09:14:32;4.60;;;2.80;;
5199;SDS011;2619;47.868;11.892;2024-02-21T09:16:58;4.13;;;2.77;;
5199;SDS011;2619;47.868;11.892;2024-02-21T09:19:24;6.83;;;3.30;;
5199;SDS011;2619;47.868;11.892;2024-02-21T09:21:50;5.00;;;2.73;;
5199;SDS011;2619;47.868;11.892;2024-02-21T09:24:15;4.13;;;2.30;;
5199;SDS011;2619;47.868;11.892;2024-02-21T09:26:41;3.40;;;2.27;;
5199;SDS011;2619;47.868;11.892;2024-02-21T09:29:06;4.00;;;2.10;;
5199;SDS011;2619;47.868;11.892;2024-02-21T09:31:33;3.00;;;1.90;;
5199;SDS011;2619;47.868;11.892;2024-02-21T09:33:59;3.10;;;1.83;;
5199;SDS011;2619;47.868;11.892;2024-02-21T09:36:25;3.93;;;2.67;;
5199;SDS011;2619;47.868;11.892;2024-02-21T09:38:50;4.27;;;2.00;;
5199;SDS011;2619;47.868;11.892;2024-02-21T09:41:17;3.50;;;2.27;;
5199;SDS011;2619;47.868;11.892;2024-02-21T09:43:43;3.60;;;2.17;;
5199;SDS011;2619;47.868;11.892;2024-02-21T09:46:16;3.27;;;1.90;;
5199;SDS011;2619;47.868;11.892;2024-02-21T09:51:43;4.80;;;2.53;;
5199;SDS011;2619;47.868;11.892;2024-02-21T09:54:10;5.50;;;2.50;;
5199;SDS011;2619;47.868;11.892;2024-02-21T09:56:35;3.63;;;2.13;;
5199;SDS011;2619;47.868;11.892;2024-02-21T09:59:01;4.17;;;2.90;;
5199;SDS011;2619;47.868;11.892;2024-02-21T10:01:30;3.40;;;2.13;;
5199;SDS011;2619;47.868;11.892;2024-02-21T10:03:56;3.50;;;2.37;;
5199;SDS011;2619;47.868;11.892;2024-02-21T10:06:22;3.77;;;2.57;;
5199;SDS011;2619;47.868;11.892;2024-02-21T10:08:55;4.97;;;1.80;;
5199;SDS011;2619;47.868;11.892;2024-02-21T10:11:24;3.43;;;1.87;;
5199;SDS011;2619;47.868;11.892;2024-02-21T10:13:50;3.17;;;1.90;;
5199;SDS011;2619;47.868;11.892;2024-02-21T10:16:16;4.10;;;2.10;;
5199;SDS011;2619;47.868;11.892;2024-02-21T10:18:41;2.93;;;1.50;;
5199;SDS011;2619;47.868;11.892;2024-02-21T10:21:07;3.97;;;2.10;;
5199;SDS011;2619;47.868;11.892;2024-02-21T10:23:51;3.30;;;2.13;;
5199;SDS011;2619;47.868;11.892;2024-02-21T10:26:18;2.80;;;1.87;;
5199;SDS011;2619;47.868;11.892;2024-02-21T10:28:45;4.70;;;2.00;;
5199;SDS011;2619;47.868;11.892;2024-02-21T10:31:20;4.73;;;1.90;;
5199;SDS011;2619;47.868;11.892;2024-02-21T10:33:54;3.70;;;1.97;;
5199;SDS011;2619;47.868;11.892;2024-02-21T10:36:23;4.60;;;1.90;;
5199;SDS011;2619;47.868;11.892;2024-02-21T10:38:50;3.60;;;1.13;;
5199;SDS011;2619;47.868;11.892;2024-02-21T10:41:16;4.63;;;1.30;;
5199;SDS011;2619;47.868;11.892;2024-02-21T10:43:46;1.80;;;0.90;;
5199;SDS011;2619;47.868;11.892;2024-02-21T10:46:18;2.20;;;1.20;;
5199;SDS011;2619;47.868;11.892;2024-02-21T10:48:45;2.30;;;1.20;;
5199;SDS011;2619;47.868;11.892;2024-02-21T10:54:11;2.00;;;0.97;;
5199;SDS011;2619;47.868;11.892;2024-02-21T10:56:38;3.90;;;1.10;;
5199;SDS011;2619;47.868;11.892;2024-02-21T10:59:06;3.30;;;1.33;;
5199;SDS011;2619;47.868;11.892;2024-02-21T11:01:32;2.53;;;1.07;;
5199;SDS011;2619;47.868;11.892;2024-02-21T11:04:04;2.53;;;1.07;;
5199;SDS011;2619;47.868;11.892;2024-02-21T11:06:31;2.00;;;0.90;;
5199;SDS011;2619;47.868;11.892;2024-02-21T11:09:06;2.50;;;1.10;;
5199;SDS011;2619;47.868;11.892;2024-02-21T11:11:36;2.40;;;1.00;;
5199;SDS011;2619;47.868;11.892;2024-02-21T11:14:08;3.40;;;1.33;;
5199;SDS011;2619;47.868;11.892;2024-02-21T11:16:42;2.60;;;0.90;;
5199;SDS011;2619;47.868;11.892;2024-02-21T11:19:29;4.53;;;1.03;;
5199;SDS011;2619;47.868;11.892;2024-02-21T11:21:56;2.13;;;1.00;;
5199;SDS011;2619;47.868;11.892;2024-02-21T11:24:30;2.17;;;1.20;;
5199;SDS011;2619;47.868;11.892;2024-02-21T11:29:49;2.43;;;0.90;;
5199;SDS011;2619;47.868;11.892;2024-02-21T11:32:20;3.67;;;1.83;;
5199;SDS011;2619;47.868;11.892;2024-02-21T11:37:18;3.33;;;1.10;;
5199;SDS011;2619;47.868;11.892;2024-02-21T11:39:44;2.57;;;1.27;;
5199;SDS011;2619;47.868;11.892;2024-02-21T11:42:10;2.70;;;1.10;;
5199;SDS011;2619;47.868;11.892;2024-02-21T11:44:37;2.33;;;0.93;;
5199;SDS011;2619;47.868;11.892;2024-02-21T11:47:06;3.53;;;0.87;;
5199;SDS011;2619;47.868;11.892;2024-02-21T11:49:35;4.00;;;0.90;;
5199;SDS011;2619;47.868;11.892;2024-02-21T11:52:03;2.80;;;0.93;;
5199;SDS011;2619;47.868;11.892;2024-02-21T11:54:32;2.30;;;1.10;;
5199;SDS011;2619;47.868;11.892;2024-02-21T11:56:59;3.00;;;1.03;;
5199;SDS011;2619;47.868;11.892;2024-02-21T11:59:25;4.27;;;1.37;;
5199;SDS011;2619;47.868;11.892;2024-02-21T12:01:52;2.70;;;1.00;;
5199;SDS011;2619;47.868;11.892;2024-02-21T12:04:18;2.27;;;1.30;;
5199;SDS011;2619;47.868;11.892;2024-02-21T12:06:48;2.50;;;0.90;;
5199;SDS011;2619;47.868;11.892;2024-02-21T12:09:17;3.90;;;1.50;;
5199;SDS011;2619;47.868;11.892;2024-02-21T12:11:43;2.90;;;1.30;;
5199;SDS011;2619;47.868;11.892;2024-02-21T12:14:10;2.20;;;1.07;;
5199;SDS011;2619;47.868;11.892;2024-02-21T12:16:36;1.90;;;0.67;;
5199;SDS011;2619;47.868;11.892;2024-02-21T12:19:04;2.60;;;0.80;;
5199;SDS011;2619;47.868;11.892;2024-02-21T12:21:30;1.90;;;0.97;;
5199;SDS011;2619;47.868;11.892;2024-02-21T12:23:58;2.70;;;0.87;;
5199;SDS011;2619;47.868;11.892;2024-02-21T12:26:24;2.53;;;1.07;;
5199;SDS011;2619;47.868;11.892;2024-02-21T12:28:50;2.73;;;0.80;;
5199;SDS011;2619;47.868;11.892;2024-02-21T12:31:16;2.07;;;0.70;;
5199;SDS011;2619;47.868;11.892;2024-02-21T12:33:44;1.93;;;0.80;;
5199;SDS011;2619;47.868;11.892;2024-02-21T12:36:10;2.47;;;0.83;;
5199;SDS011;2619;47.868;11.892;2024-02-21T12:38:36;2.77;;;0.73;;
5199;SDS011;2619;47.868;11.892;2024-02-21T12:41:02;4.13;;;2.13;;
5199;SDS011;2619;47.868;11.892;2024-02-21T12:43:28;2.83;;;0.73;;
5199;SDS011;2619;47.868;11.892;2024-02-21T12:45:54;2.07;;;0.70;;
5199;SDS011;2619;47.868;11.892;2024-02-21T12:48:19;2.80;;;1.10;;
5199;SDS011;2619;47.868;11.892;2024-02-21T12:50:48;2.93;;;0.90;;
5199;SDS011;2619;47.868;11.892;2024-02-21T12:53:17;2.00;;;0.80;;
5199;SDS011;2619;47.868;11.892;2024-02-21T12:55:46;1.90;;;1.07;;
5199;SDS011;2619;47.868;11.892;2024-02-21T12:58:14;2.03;;;0.90;;
5199;SDS011;2619;47.868;11.892;2024-02-21T13:00:40;2.20;;;0.70;;
5199;SDS011;2619;47.868;11.892;2024-02-21T13:03:06;2.90;;;1.23;;
5199;SDS011;2619;47.868;11.892;2024-02-21T13:05:32;3.10;;;0.93;;
5199;SDS011;2619;47.868;11.892;2024-02-21T13:07:58;2.20;;;1.00;;
5199;SDS011;2619;47.868;11.892;2024-02-21T13:10:24;2.40;;;0.70;;
5199;SDS011;2619;47.868;11.892;2024-02-21T13:12:50;2.30;;;0.90;;
5199;SDS011;2619;47.868;11.892;2024-02-21T13:15:16;2.37;;;0.70;;
5199;SDS011;2619;47.868;11.892;2024-02-21T13:17:43;2.90;;;1.17;;
5199;SDS011;2619;47.868;11.892;2024-02-21T13:20:09;2.73;;;0.90;;
5199;SDS011;2619;47.868;11.892;2024-02-21T13:22:35;3.30;;;0.80;;
5199;SDS011;2619;47.868;11.892;2024-02-21T13:25:01;2.47;;;0.90;;
5199;SDS011;2619;47.868;11.892;2024-02-21T13:27:27;2.37;;;1.00;;
5199;SDS011;2619;47.868;11.892;2024-02-21T13:29:53;2.40;;;1.00;;
5199;SDS011;2619;47.868;11.892;2024-02-21T13:32:18;2.90;;;1.07;;
5199;SDS011;2619;47.868;11.892;2024-02-21T13:34:44;2.20;;;0.90;;
5199;SDS011;2619;47.868;11.892;2024-02-21T13:37:10;1.80;;;0.70;;
5199;SDS011;2619;47.868;11.892;2024-02-21T13:39:35;2.83;;;1.00;;
5199;SDS011;2619;47.868;11.892;2024-02-21T13:42:02;2.80;;;1.30;;
5199;SDS011;2619;47.868;11.892;2024-02-21T13:44:30;3.40;;;1.10;;
5199;SDS011;2619;47.868;11.892;2024-02-21T13:46:59;2.60;;;1.30;;
5199;SDS011;2619;47.868;11.892;2024-02-21T13:49:25;3.10;;;1.00;;
5199;SDS011;2619;47.868;11.892;2024-02-21T13:51:50;2.20;;;0.97;;
5199;SDS011;2619;47.868;11.892;2024-02-21T13:54:16;2.30;;;1.00;;
5199;SDS011;2619;47.868;11.892;2024-02-21T13:56:44;2.43;;;0.93;;
5199;SDS011;2619;47.868;11.892;2024-02-21T13:59:11;2.00;;;0.90;;
5199;SDS011;2619;47.868;11.892;2024-02-21T14:01:38;1.90;;;0.80;;
5199;SDS011;2619;47.868;11.892;2024-02-21T14:04:04;2.20;;;1.00;;
5199;SDS011;2619;47.868;11.892;2024-02-21T14:06:29;1.90;;;0.90;;
5199;SDS011;2619;47.868;11.892;2024-02-21T14:08:55;1.90;;;0.90;;
5199;SDS011;2619;47.868;11.892;2024-02-21T14:11:20;2.10;;;0.80;;
5199;SDS011;2619;47.868;11.892;2024-02-21T14:13:46;2.30;;;1.10;;
5199;SDS011;2619;47.868;11.892;2024-02-21T14:16:12;1.87;;;0.80;;
5199;SDS011;2619;47.868;11.892;2024-02-21T14:18:40;2.47;;;1.07;;
5199;SDS011;2619;47.868;11.892;2024-02-21T14:21:07;2.13;;;0.90;;
5199;SDS011;2619;47.868;11.892;2024-02-21T14:23:35;2.73;;;1.00;;
5199;SDS011;2619;47.868;11.892;2024-02-21T14:26:04;2.93;;;0.90;;
5199;SDS011;2619;47.868;11.892;2024-02-21T14:28:29;1.90;;;0.80;;
5199;SDS011;2619;47.868;11.892;2024-02-21T14:30:55;3.13;;;0.93;;
5199;SDS011;2619;47.868;11.892;2024-02-21T14:33:26;2.17;;;1.00;;
5199;SDS011;2619;47.868;11.892;2024-02-21T14:35:52;2.23;;;1.00;;
5199;SDS011;2619;47.868;11.892;2024-02-21T14:38:18;1.70;;;0.70;;
5199;SDS011;2619;47.868;11.892;2024-02-21T14:40:44;2.30;;;0.73;;
5199;SDS011;2619;47.868;11.892;2024-02-21T14:43:10;3.13;;;0.90;;
5199;SDS011;2619;47.868;11.892;2024-02-21T14:45:36;2.30;;;0.83;;
5199;SDS011;2619;47.868;11.892;2024-02-21T14:48:03;2.23;;;0.97;;
5199;SDS011;2619;47.868;11.892;2024-02-21T14:50:29;2.63;;;0.67;;
5199;SDS011;2619;47.868;11.892;2024-02-21T14:52:54;3.00;;;0.67;;
5199;SDS011;2619;47.868;11.892;2024-02-21T14:55:20;3.30;;;0.60;;
5199;SDS011;2619;47.868;11.892;2024-02-21T14:57:45;2.10;;;0.80;;
5199;SDS011;2619;47.868;11.892;2024-02-21T15:00:11;2.93;;;0.77;;
5199;SDS011;2619;47.868;11.892;2024-02-21T15:02:37;2.57;;;0.80;;
5199;SDS011;2619;47.868;11.892;2024-02-21T15:05:03;2.00;;;0.63;;
5199;SDS011;2619;47.868;11.892;2024-02-21T15:07:30;1.80;;;0.80;;
5199;SDS011;2619;47.868;11.892;2024-02-21T15:09:57;2.87;;;0.80;;
5199;SDS011;2619;47.868;11.892;2024-02-21T15:12:22;3.30;;;0.93;;